Time;durP1;ratioP1;P1;durP2;ratioP2;P2;SDS_P1;SDS_P2;PMS_P1;PMS_P2;Temp;Humidity;BMP_temperature;BMP_pressure;BME280_temperature;BME280_humidity;BME280_pressure;Samples;Min_cycle;Max_cycle;Signal;HPM_P1;HPM_P2
2022/11/20 00:02:21;;;;;;;85.15;60.63;;;15.30;74.40;;;;;;4984130;28;92319;-52
2022/11/20 00:04:46;;;;;;;85.03;59.90;;;15.30;74.10;;;;;;4983068;28;86686;-51
2022/11/20 00:07:12;;;;;;;83.20;59.70;;;15.30;73.90;;;;;;4993836;28;87041;-52
2022/11/20 00:09:38;;;;;;;84.40;59.65;;;15.30;74.00;;;;;;4989070;28;88419;-53
2022/11/20 00:12:04;;;;;;;83.30;59.67;;;15.30;74.00;;;;;;4987994;28;86709;-49
2022/11/20 00:14:29;;;;;;;85.85;59.88;;;15.40;74.00;;;;;;4987981;28;86160;-48
2022/11/20 00:16:55;;;;;;;85.38;60.92;;;15.40;74.00;;;;;;4991960;28;85938;-49
2022/11/20 00:19:20;;;;;;;83.97;58.42;;;15.40;74.00;;;;;;4981923;28;86056;-49
2022/11/20 00:21:46;;;;;;;85.55;59.95;;;15.40;73.90;;;;;;4986495;28;85510;-49
2022/11/20 00:24:12;;;;;;;83.18;59.53;;;15.40;73.80;;;;;;4991167;27;87263;-51
2022/11/20 00:26:38;;;;;;;87.03;60.15;;;15.50;73.70;;;;;;4987809;28;85394;-50
2022/11/20 00:29:03;;;;;;;88.15;60.08;;;15.50;73.90;;;;;;4982068;28;85340;-50
2022/11/20 00:31:30;;;;;;;83.53;60.92;;;15.50;73.80;;;;;;4984345;28;85374;-51
2022/11/20 00:33:56;;;;;;;85.63;59.50;;;15.50;73.90;;;;;;4992909;28;87276;-51
2022/11/20 00:36:24;;;;;;;85.60;60.08;;;15.50;73.80;;;;;;4993410;28;85918;-49
2022/11/20 00:38:55;;;;;;;84.60;59.75;;;15.50;73.70;;;;;;4981327;28;86253;-50
2022/11/20 00:41:21;;;;;;;87.78;60.65;;;15.50;73.80;;;;;;4985793;28;86874;-52
2022/11/20 00:43:47;;;;;;;85.97;59.88;;;15.50;73.70;;;;;;4986488;28;89214;-51
2022/11/20 00:46:15;;;;;;;85.65;60.30;;;15.60;73.80;;;;;;4980800;28;88428;-52
2022/11/20 00:48:41;;;;;;;84.90;59.83;;;15.50;73.60;;;;;;4988005;27;85635;-50
2022/11/20 00:51:07;;;;;;;83.72;59.85;;;15.50;73.70;;;;;;4990639;28;86108;-51
2022/11/20 00:53:32;;;;;;;85.07;60.22;;;15.50;73.60;;;;;;4996536;27;85764;-50
2022/11/20 00:56:01;;;;;;;84.10;59.65;;;15.50;73.70;;;;;;4982427;28;86850;-48
2022/11/20 00:58:31;;;;;;;86.72;60.28;;;15.50;73.70;;;;;;4985434;28;86003;-50
2022/11/20 01:01:01;;;;;;;85.65;60.40;;;15.50;73.80;;;;;;4979798;27;86558;-52
2022/11/20 01:03:30;;;;;;;83.03;59.77;;;15.50;73.90;;;;;;4988332;28;86101;-50
2022/11/20 01:06:01;;;;;;;86.22;59.72;;;15.50;73.40;;;;;;4988441;28;86369;-50
2022/11/20 01:08:31;;;;;;;86.22;60.20;;;15.50;73.70;;;;;;4986513;28;86121;-52
2022/11/20 01:11:20;;;;;;;86.32;60.30;;;15.50;73.60;;;;;;4986355;28;85415;-53
2022/11/20 01:13:48;;;;;;;89.65;60.95;;;15.60;73.80;;;;;;4978631;28;85295;-51
2022/11/20 01:16:20;;;;;;;87.13;60.83;;;15.60;73.70;;;;;;4978917;28;87671;-53
2022/11/20 01:18:48;;;;;;;86.22;60.22;;;15.60;73.70;;;;;;4984555;28;86069;-49
2022/11/20 01:21:17;;;;;;;84.88;59.50;;;15.50;73.60;;;;;;4979156;28;85942;-49
2022/11/20 01:23:43;;;;;;;86.35;60.15;;;15.50;73.50;;;;;;4983299;28;88408;-49
2022/11/20 01:26:25;;;;;;;86.32;59.65;;;15.50;73.60;;;;;;4983421;28;85973;-51
2022/11/20 01:28:51;;;;;;;85.53;60.25;;;15.50;73.50;;;;;;4987730;28;85327;-49
2022/11/20 01:31:27;;;;;;;86.70;61.15;;;15.60;73.60;;;;;;4980704;28;87627;-50
2022/11/20 01:33:55;;;;;;;86.38;60.40;;;15.60;73.60;;;;;;4984110;28;86302;-48
2022/11/20 01:36:22;;;;;;;85.25;61.05;;;15.60;73.60;;;;;;4982627;28;85962;-50
2022/11/20 01:38:51;;;;;;;83.57;59.58;;;15.60;73.60;;;;;;4985985;28;87717;-50
2022/11/20 01:44:02;;;;;;;85.38;59.78;;;15.60;73.50;;;;;;4979186;28;89280;-53
2022/11/20 01:46:29;;;;;;;86.93;60.67;;;15.60;73.50;;;;;;4993779;28;85607;-52
2022/11/20 01:49:02;;;;;;;86.05;60.08;;;15.60;73.40;;;;;;4983820;28;86429;-49
2022/11/20 01:51:41;;;;;;;86.05;60.05;;;15.60;73.40;;;;;;4982114;28;86014;-52
2022/11/20 01:54:13;;;;;;;85.72;60.50;;;15.60;73.50;;;;;;4988381;28;86227;-51
2022/11/20 01:56:42;;;;;;;83.80;59.63;;;15.50;73.40;;;;;;4979972;28;87764;-52
2022/11/20 01:59:11;;;;;;;84.30;59.65;;;15.60;73.40;;;;;;4986235;28;87827;-53
2022/11/20 02:01:38;;;;;;;85.30;60.47;;;15.60;73.50;;;;;;4978953;28;85463;-53
2022/11/20 02:04:06;;;;;;;84.00;59.30;;;15.50;73.60;;;;;;4991613;28;85778;-54
2022/11/20 02:06:40;;;;;;;87.80;60.00;;;15.60;73.60;;;;;;4983020;27;88272;-53
2022/11/20 02:09:05;;;;;;;85.72;60.22;;;15.50;73.50;;;;;;4990794;28;87401;-51
2022/11/20 02:11:31;;;;;;;85.25;60.00;;;15.60;73.50;;;;;;4975763;28;86180;-49
2022/11/20 02:13:58;;;;;;;83.47;59.38;;;15.60;73.40;;;;;;4983315;27;85947;-51
2022/11/20 02:16:30;;;;;;;85.75;59.13;;;15.50;73.40;;;;;;4982587;28;86051;-52
2022/11/20 02:18:59;;;;;;;85.28;60.03;;;15.50;73.30;;;;;;4980643;28;87404;-54
2022/11/20 02:21:33;;;;;;;84.55;59.67;;;15.50;73.30;;;;;;4983542;28;85538;-50
2022/11/20 02:23:59;;;;;;;90.18;61.35;;;15.50;73.60;;;;;;4988006;28;85553;-52
2022/11/20 02:26:27;;;;;;;86.60;60.70;;;15.50;73.30;;;;;;4989978;28;91134;-48
2022/11/20 02:28:54;;;;;;;87.50;60.80;;;15.50;73.30;;;;;;4979529;28;87317;-50
2022/11/20 02:31:19;;;;;;;85.47;60.10;;;15.50;73.20;;;;;;4987583;28;89880;-52
2022/11/20 02:33:45;;;;;;;85.10;60.40;;;15.50;73.30;;;;;;4984133;28;87269;-51
2022/11/20 02:36:15;;;;;;;85.25;60.47;;;15.50;73.30;;;;;;4982252;28;88412;-52
2022/11/20 02:38:41;;;;;;;83.03;59.22;;;15.40;73.30;;;;;;4987020;28;85713;-53
2022/11/20 02:41:07;;;;;;;85.40;60.28;;;15.50;73.40;;;;;;4988713;28;85995;-53
2022/11/20 02:43:33;;;;;;;84.35;59.70;;;15.50;73.10;;;;;;4997333;28;87735;-52
2022/11/20 02:45:58;;;;;;;83.95;59.47;;;15.50;73.40;;;;;;4986484;28;87597;-51
2022/11/20 02:48:24;;;;;;;84.13;59.78;;;15.50;73.40;;;;;;4991325;28;87654;-52
2022/11/20 02:50:49;;;;;;;85.55;60.13;;;15.40;73.10;;;;;;4984812;28;87239;-52
2022/11/20 02:53:15;;;;;;;85.35;59.92;;;15.50;73.10;;;;;;4990972;28;86593;-49
2022/11/20 02:55:41;;;;;;;83.05;58.42;;;15.50;73.10;;;;;;4981518;28;86963;-53
2022/11/20 02:58:06;;;;;;;83.45;59.42;;;15.40;73.00;;;;;;4983941;28;86992;-49
2022/11/20 03:00:32;;;;;;;82.57;58.83;;;15.50;73.00;;;;;;4988435;27;86268;-50
2022/11/20 03:02:58;;;;;;;86.60;60.00;;;15.50;72.80;;;;;;4984575;28;87583;-53
2022/11/20 03:05:23;;;;;;;86.68;59.97;;;15.50;72.90;;;;;;4988332;28;87574;-54
2022/11/20 03:07:49;;;;;;;82.43;59.30;;;15.40;73.00;;;;;;4988147;28;85597;-51
2022/11/20 03:10:15;;;;;;;87.43;59.97;;;15.40;72.90;;;;;;4994595;28;86897;-51
2022/11/20 03:12:40;;;;;;;83.30;59.15;;;15.40;72.90;;;;;;4981486;28;86789;-52
2022/11/20 03:15:06;;;;;;;80.70;58.67;;;15.40;72.70;;;;;;4979054;28;85599;-50
2022/11/20 03:17:32;;;;;;;85.97;60.35;;;15.50;72.70;;;;;;4987662;28;85566;-52
2022/11/20 03:19:58;;;;;;;83.47;60.03;;;15.40;72.60;;;;;;4979869;28;85776;-50
2022/11/20 03:22:23;;;;;;;84.15;59.50;;;15.40;72.80;;;;;;4994944;28;85959;-53
2022/11/20 03:24:49;;;;;;;82.85;59.85;;;15.40;72.80;;;;;;4987591;28;85953;-48
2022/11/20 03:27:14;;;;;;;83.68;59.95;;;15.40;72.90;;;;;;4994044;28;85969;-52
2022/11/20 03:29:40;;;;;;;83.75;59.53;;;15.30;72.80;;;;;;4979611;28;88692;-54
2022/11/20 03:32:06;;;;;;;84.72;60.10;;;15.30;72.90;;;;;;4985349;28;85905;-52
2022/11/20 03:34:31;;;;;;;84.18;59.83;;;15.30;72.90;;;;;;4974020;27;86716;-49
2022/11/20 03:36:57;;;;;;;82.25;59.80;;;15.30;73.00;;;;;;4986601;28;86132;-51
2022/11/20 03:39:23;;;;;;;85.70;59.75;;;15.30;73.00;;;;;;4984465;28;86248;-51
2022/11/20 03:41:48;;;;;;;84.00;60.00;;;15.30;72.90;;;;;;4993591;28;85445;-51
2022/11/20 03:44:14;;;;;;;84.93;59.25;;;15.30;72.90;;;;;;4993837;28;90122;-49
2022/11/20 03:46:40;;;;;;;83.07;59.80;;;15.30;72.80;;;;;;4979961;28;92815;-52
2022/11/20 03:49:05;;;;;;;85.68;60.78;;;15.30;72.80;;;;;;4987441;28;88205;-54
2022/11/20 03:51:33;;;;;;;83.57;59.13;;;15.30;72.80;;;;;;4988100;28;85930;-48
2022/11/20 03:54:02;;;;;;;82.18;59.40;;;15.20;72.70;;;;;;4986291;28;90726;-52
2022/11/20 03:56:31;;;;;;;84.13;59.30;;;15.20;72.70;;;;;;4982178;28;85290;-53
2022/11/20 03:58:57;;;;;;;83.75;59.47;;;15.20;72.80;;;;;;4990670;28;85618;-49
2022/11/20 04:01:31;;;;;;;82.35;59.35;;;15.20;72.80;;;;;;4998908;28;86116;-51
2022/11/20 04:03:58;;;;;;;83.88;59.55;;;15.20;72.80;;;;;;4988807;28;86769;-51
2022/11/20 04:06:26;;;;;;;83.55;59.47;;;15.20;72.80;;;;;;4988894;28;90737;-51
2022/11/20 04:08:55;;;;;;;86.10;60.47;;;15.20;72.60;;;;;;4981767;28;89971;-53
2022/11/20 04:11:35;;;;;;;83.22;59.03;;;15.20;72.80;;;;;;4987020;28;89933;-53
2022/11/20 04:14:05;;;;;;;84.13;59.55;;;15.20;72.60;;;;;;4990278;28;90105;-52
2022/11/20 04:16:34;;;;;;;85.93;60.40;;;15.20;72.40;;;;;;4979129;28;91040;-52
2022/11/20 04:19:02;;;;;;;86.35;60.42;;;15.20;72.60;;;;;;4994972;28;90160;-49
2022/11/20 04:21:28;;;;;;;83.50;59.08;;;15.20;72.70;;;;;;4976783;28;89651;-51
2022/11/20 04:23:55;;;;;;;85.03;59.90;;;15.20;72.80;;;;;;4983107;28;91233;-51
2022/11/20 04:26:22;;;;;;;82.57;59.08;;;15.20;72.70;;;;;;4986804;28;93495;-51
2022/11/20 04:28:48;;;;;;;85.50;59.97;;;15.20;72.70;;;;;;4979829;28;89465;-52
2022/11/20 04:31:19;;;;;;;83.45;59.95;;;15.20;72.80;;;;;;4978655;28;89534;-53
2022/11/20 04:33:45;;;;;;;85.05;59.38;;;15.20;72.70;;;;;;4987171;28;89502;-53
2022/11/20 04:36:13;;;;;;;83.47;59.47;;;15.20;72.70;;;;;;4992411;28;90654;-54
2022/11/20 04:38:39;;;;;;;84.05;59.88;;;15.20;72.60;;;;;;4985690;28;91690;-51
2022/11/20 04:41:07;;;;;;;85.65;60.03;;;15.20;72.40;;;;;;4985518;28;90876;-54
2022/11/20 04:43:33;;;;;;;83.88;59.67;;;15.20;72.40;;;;;;4986758;27;90062;-52
2022/11/20 04:46:00;;;;;;;83.22;59.55;;;15.20;72.40;;;;;;4984401;28;91198;-52
2022/11/20 04:48:27;;;;;;;84.78;59.25;;;15.20;72.30;;;;;;4979132;28;90485;-52
2022/11/20 04:50:53;;;;;;;87.50;60.88;;;15.20;72.30;;;;;;4980038;28;89647;-52
2022/11/20 04:53:19;;;;;;;84.15;59.28;;;15.20;72.30;;;;;;4979822;27;89991;-51
2022/11/20 04:55:45;;;;;;;83.63;59.45;;;15.20;72.20;;;;;;4978349;28;90044;-51
2022/11/20 04:58:12;;;;;;;82.72;59.63;;;15.20;72.30;;;;;;4983772;28;91132;-53
2022/11/20 05:00:37;;;;;;;84.63;59.42;;;15.20;72.10;;;;;;4975306;28;89896;-51
2022/11/20 05:03:03;;;;;;;83.47;59.00;;;15.20;72.20;;;;;;4980149;28;89967;-51
2022/11/20 05:05:29;;;;;;;83.93;59.70;;;15.20;72.40;;;;;;4974283;28;91184;-53
2022/11/20 05:07:58;;;;;;;87.47;59.65;;;15.10;72.10;;;;;;4982038;28;97683;-50
2022/11/20 05:10:25;;;;;;;82.97;58.92;;;15.10;72.30;;;;;;4999523;28;91405;-53
2022/11/20 05:12:51;;;;;;;83.95;59.63;;;15.10;72.40;;;;;;4989879;28;91225;-53
2022/11/20 05:15:17;;;;;;;83.72;58.63;;;15.00;72.30;;;;;;4990845;28;91336;-53
2022/11/20 05:17:48;;;;;;;81.72;58.95;;;15.10;72.50;;;;;;4979106;28;94373;-49
2022/11/20 05:20:13;;;;;;;81.57;59.00;;;15.10;72.30;;;;;;4974290;28;90345;-50
2022/11/20 05:22:39;;;;;;;84.47;59.67;;;15.10;72.50;;;;;;4981362;28;90277;-51
2022/11/20 05:25:05;;;;;;;85.07;59.08;;;15.10;72.30;;;;;;4979579;28;94267;-50
2022/11/20 05:27:30;;;;;;;83.80;59.78;;;15.00;72.40;;;;;;4977287;28;91456;-52
2022/11/20 05:29:56;;;;;;;84.70;60.03;;;15.00;72.60;;;;;;4981536;28;91883;-53
2022/11/20 05:32:25;;;;;;;84.93;59.40;;;14.90;72.50;;;;;;4991956;28;90185;-54
2022/11/20 05:34:53;;;;;;;84.95;60.35;;;15.00;72.70;;;;;;4981595;28;93173;-53
2022/11/20 05:37:19;;;;;;;87.40;60.63;;;15.00;72.60;;;;;;4977285;28;92655;-53
2022/11/20 05:39:44;;;;;;;85.85;60.13;;;15.00;72.50;;;;;;4984133;28;90677;-50
2022/11/20 05:44:54;;;;;;;85.90;60.58;;;15.00;72.60;;;;;;4977517;28;89889;-52
2022/11/20 05:47:20;;;;;;;82.75;58.65;;;14.90;72.70;;;;;;4984623;28;90856;-53
2022/11/20 05:49:46;;;;;;;84.72;59.50;;;14.90;72.60;;;;;;4987312;28;89960;-49
2022/11/20 05:52:11;;;;;;;82.70;58.97;;;15.00;72.50;;;;;;4977301;28;90144;-52
2022/11/20 05:54:37;;;;;;;84.82;59.17;;;14.90;72.50;;;;;;4982674;28;92747;-51
2022/11/20 05:57:03;;;;;;;85.18;60.92;;;14.90;72.70;;;;;;4978257;28;91385;-54
2022/11/20 05:59:29;;;;;;;84.82;59.75;;;15.00;72.60;;;;;;4983882;28;90112;-52
2022/11/20 06:01:54;;;;;;;85.15;59.70;;;14.90;72.50;;;;;;4981576;28;89893;-51
2022/11/20 06:04:20;;;;;;;85.78;59.97;;;14.90;72.40;;;;;;4987661;28;90453;-54
2022/11/20 06:06:46;;;;;;;83.10;58.80;;;14.90;72.50;;;;;;4986311;28;90564;-56
2022/11/20 06:09:11;;;;;;;85.10;59.13;;;15.00;72.50;;;;;;4979144;28;89624;-51
2022/11/20 06:11:37;;;;;;;84.53;60.17;;;14.90;73.30;;;;;;4984435;28;89224;-50
2022/11/20 06:14:03;;;;;;;83.80;59.03;;;14.90;72.70;;;;;;4980412;28;90790;-54
2022/11/20 06:16:28;;;;;;;89.63;59.63;;;14.90;72.40;;;;;;4981187;28;96440;-52
2022/11/20 06:18:54;;;;;;;84.43;59.58;;;14.90;72.70;;;;;;4974437;28;92198;-52
2022/11/20 06:21:21;;;;;;;82.15;58.83;;;14.90;72.60;;;;;;4978924;28;95311;-54
2022/11/20 06:23:48;;;;;;;81.13;58.22;;;14.90;72.70;;;;;;4969919;28;91698;-49
2022/11/20 06:26:24;;;;;;;85.03;59.33;;;14.90;72.60;;;;;;4980282;28;89661;-53
2022/11/20 06:28:50;;;;;;;81.90;58.78;;;14.90;72.50;;;;;;4986257;28;93548;-53
2022/11/20 06:31:18;;;;;;;82.32;58.53;;;14.90;72.60;;;;;;4981159;28;90862;-53
2022/11/20 06:33:46;;;;;;;82.18;58.65;;;14.90;72.50;;;;;;4985130;28;89986;-52
2022/11/20 06:36:14;;;;;;;83.20;58.58;;;14.90;72.50;;;;;;4987063;28;90679;-52
2022/11/20 06:38:40;;;;;;;81.70;58.45;;;14.90;72.40;;;;;;4979013;27;90952;-52
2022/11/20 06:41:08;;;;;;;81.68;58.40;;;14.90;72.20;;;;;;4980348;28;89773;-54
2022/11/20 06:43:34;;;;;;;81.05;57.55;;;14.80;72.60;;;;;;4978692;28;92810;-52
2022/11/20 06:45:59;;;;;;;84.65;58.85;;;14.80;72.50;;;;;;4983255;28;90846;-50
2022/11/20 06:48:27;;;;;;;83.75;59.28;;;14.90;72.50;;;;;;4983042;28;90572;-52
2022/11/20 06:50:53;;;;;;;82.25;58.40;;;14.90;72.50;;;;;;4982440;28;90567;-54
2022/11/20 06:53:19;;;;;;;80.95;58.50;;;14.80;72.60;;;;;;4977924;28;96462;-53
2022/11/20 06:55:48;;;;;;;81.45;58.83;;;14.80;72.50;;;;;;4977700;28;90601;-50
2022/11/20 06:58:15;;;;;;;82.45;58.75;;;14.80;72.50;;;;;;4978754;28;90745;-49
2022/11/20 07:00:41;;;;;;;85.15;59.30;;;14.80;72.60;;;;;;4977345;28;89540;-53
2022/11/20 07:03:08;;;;;;;82.22;58.58;;;14.80;72.40;;;;;;4985957;28;91718;-53
2022/11/20 07:05:35;;;;;;;82.90;57.75;;;14.80;72.40;;;;;;4984059;28;90049;-53
2022/11/20 07:08:02;;;;;;;83.97;58.55;;;14.80;72.50;;;;;;4984567;28;96337;-50
2022/11/20 07:10:27;;;;;;;82.50;59.15;;;14.80;72.50;;;;;;4984080;28;94075;-52
2022/11/20 07:12:53;;;;;;;83.00;59.03;;;14.80;72.50;;;;;;4987276;28;90490;-50
2022/11/20 07:15:21;;;;;;;83.03;58.42;;;14.80;72.60;;;;;;4983158;28;90144;-52
2022/11/20 07:17:46;;;;;;;82.25;58.17;;;14.80;72.50;;;;;;4981419;28;90345;-53
2022/11/20 07:20:13;;;;;;;83.28;57.47;;;14.80;72.60;;;;;;4983894;28;90073;-51
2022/11/20 07:22:39;;;;;;;84.20;58.50;;;14.80;72.60;;;;;;4983928;28;91435;-50
2022/11/20 07:25:05;;;;;;;81.15;57.45;;;14.80;72.60;;;;;;4988622;27;91977;-53
2022/11/20 07:27:30;;;;;;;79.20;57.63;;;14.80;72.70;;;;;;4983793;28;89868;-52
2022/11/20 07:29:56;;;;;;;83.13;58.53;;;14.80;72.60;;;;;;4976579;28;91072;-52
2022/11/20 07:32:22;;;;;;;81.50;57.42;;;14.80;72.60;;;;;;4978809;28;90736;-51
2022/11/20 07:34:48;;;;;;;81.70;58.20;;;14.80;73.00;;;;;;4977379;28;91436;-52
2022/11/20 07:37:14;;;;;;;82.97;58.65;;;14.80;72.60;;;;;;4975873;28;90116;-50
2022/11/20 07:39:40;;;;;;;81.97;58.58;;;14.80;72.50;;;;;;4986547;28;89984;-52
2022/11/20 07:42:06;;;;;;;78.13;57.15;;;14.80;72.50;;;;;;4986918;28;94345;-54
2022/11/20 07:44:32;;;;;;;81.72;57.80;;;14.80;72.40;;;;;;4987858;27;90067;-54
2022/11/20 07:46:58;;;;;;;83.35;58.88;;;14.90;72.40;;;;;;4978502;28;90919;-50
2022/11/20 07:49:23;;;;;;;82.50;58.55;;;14.90;72.20;;;;;;4985679;28;91061;-52
2022/11/20 07:51:55;;;;;;;81.18;57.70;;;14.80;72.70;;;;;;4975830;28;92879;-49
2022/11/20 07:54:21;;;;;;;80.00;58.10;;;14.80;72.90;;;;;;4985166;28;94600;-52
2022/11/20 07:56:47;;;;;;;86.72;57.35;;;14.80;72.90;;;;;;4986833;28;92798;-51
2022/11/20 07:59:13;;;;;;;82.13;57.22;;;14.80;73.20;;;;;;4986036;28;91930;-50
2022/11/20 08:01:39;;;;;;;85.88;57.95;;;14.90;73.30;;;;;;4978494;28;90005;-51
2022/11/20 08:04:06;;;;;;;81.55;57.72;;;14.90;73.40;;;;;;4990695;27;90079;-52
2022/11/20 08:06:31;;;;;;;82.70;57.22;;;14.90;73.50;;;;;;4988716;28;89904;-51
2022/11/20 08:08:57;;;;;;;82.72;58.05;;;14.90;73.80;;;;;;4979024;28;92842;-53
2022/11/20 08:14:13;;;;;;;83.25;57.63;;;14.90;74.20;;;;;;4986922;28;89360;-50
2022/11/20 08:16:44;;;;;;;84.05;57.13;;;15.00;75.40;;;;;;4983008;28;91340;-52
2022/11/20 08:19:10;;;;;;;81.93;57.30;;;15.00;76.10;;;;;;4990738;28;93132;-53
2022/11/20 08:21:36;;;;;;;89.15;57.65;;;15.00;75.40;;;;;;4989742;28;93973;-52
2022/11/20 08:24:01;;;;;;;82.78;56.03;;;14.90;75.90;;;;;;4984331;27;91530;-52
2022/11/20 08:26:27;;;;;;;83.85;56.95;;;14.90;75.50;;;;;;4989186;28;92298;-49
2022/11/20 08:28:57;;;;;;;81.63;56.35;;;15.00;75.20;;;;;;4983526;28;90023;-51
2022/11/20 08:31:24;;;;;;;82.15;57.15;;;14.90;75.40;;;;;;4982526;28;93140;-50
2022/11/20 08:33:50;;;;;;;77.93;56.38;;;14.90;76.00;;;;;;4983243;28;90652;-49
2022/11/20 08:36:16;;;;;;;82.43;56.42;;;14.90;75.60;;;;;;4982589;28;91625;-52
2022/11/20 08:38:46;;;;;;;84.53;57.05;;;14.90;75.70;;;;;;4981643;28;89459;-50
2022/11/20 08:41:25;;;;;;;81.13;56.83;;;14.90;75.60;;;;;;4975757;28;89711;-47
2022/11/20 08:43:56;;;;;;;88.82;58.38;;;14.90;75.90;;;;;;4987030;28;90490;-48
2022/11/20 08:46:23;;;;;;;85.53;57.80;;;15.00;75.80;;;;;;4980025;28;91105;-52
2022/11/20 08:48:48;;;;;;;81.00;55.90;;;14.90;76.20;;;;;;4987629;28;89756;-49
2022/11/20 08:51:15;;;;;;;80.40;55.70;;;14.90;76.50;;;;;;4979166;28;92224;-51
2022/11/20 08:53:41;;;;;;;84.72;56.80;;;14.80;77.20;;;;;;4980434;28;90252;-52
2022/11/20 08:56:07;;;;;;;82.72;55.83;;;14.80;76.50;;;;;;4982429;28;89714;-49
2022/11/20 08:58:33;;;;;;;81.80;56.88;;;14.70;76.30;;;;;;4980370;28;95970;-48
2022/11/20 09:00:58;;;;;;;84.38;56.58;;;14.70;77.70;;;;;;4981233;28;90581;-51
2022/11/20 09:03:26;;;;;;;86.45;56.45;;;14.70;80.90;;;;;;4978076;28;89757;-48
2022/11/20 09:05:57;;;;;;;82.05;55.83;;;14.90;81.60;;;;;;4988257;28;90015;-46
2022/11/20 09:08:23;;;;;;;78.82;55.00;;;15.00;79.00;;;;;;4982383;28;89776;-46
2022/11/20 09:10:52;;;;;;;80.65;54.95;;;15.00;79.00;;;;;;4978174;28;91429;-50
2022/11/20 09:13:17;;;;;;;77.70;54.70;;;15.00;78.70;;;;;;4985674;27;92501;-51
2022/11/20 09:15:43;;;;;;;76.75;53.80;;;15.10;77.70;;;;;;4993672;28;90348;-50
2022/11/20 09:18:09;;;;;;;76.57;53.47;;;15.10;77.30;;;;;;4982849;28;89866;-49
2022/11/20 09:20:35;;;;;;;80.07;54.17;;;15.00;76.60;;;;;;4982003;28;90950;-48
2022/11/20 09:23:00;;;;;;;73.78;53.38;;;15.00;75.50;;;;;;4982220;28;91495;-51
2022/11/20 09:25:26;;;;;;;79.43;53.58;;;14.90;75.40;;;;;;4983748;28;90678;-49
2022/11/20 09:27:56;;;;;;;73.78;53.08;;;14.90;75.60;;;;;;4983740;28;90692;-48
2022/11/20 09:30:22;;;;;;;75.63;53.65;;;14.90;75.30;;;;;;4977319;28;92402;-48
2022/11/20 09:32:48;;;;;;;81.75;54.03;;;15.00;75.20;;;;;;4984766;28;90100;-47
2022/11/20 09:35:14;;;;;;;80.78;54.85;;;15.10;74.50;;;;;;4980775;28;90680;-53
2022/11/20 09:37:40;;;;;;;78.75;54.88;;;15.20;74.00;;;;;;4981149;28;92325;-47
2022/11/20 09:40:06;;;;;;;79.70;54.78;;;15.20;76.10;;;;;;4978721;28;91314;-45
2022/11/20 09:42:47;;;;;;;85.30;54.90;;;15.20;74.30;;;;;;4989349;27;90302;-48
2022/11/20 09:45:38;;;;;;;82.63;53.97;;;15.30;73.60;;;;;;4983516;27;90109;-50
2022/11/20 09:48:12;;;;;;;88.60;55.35;;;15.30;73.50;;;;;;4982211;28;90726;-50
2022/11/20 09:50:59;;;;;;;85.25;54.95;;;15.40;74.90;;;;;;4981828;28;90117;-48
2022/11/20 09:53:47;;;;;;;88.22;54.28;;;15.40;76.30;;;;;;4984704;28;89129;-48
2022/11/20 09:56:14;;;;;;;82.78;53.40;;;15.40;74.40;;;;;;4986275;28;90226;-48
2022/11/20 09:58:50;;;;;;;86.43;53.38;;;15.40;73.30;;;;;;4980875;28;91156;-49
2022/11/20 10:01:26;;;;;;;83.88;53.55;;;15.40;72.80;;;;;;4982857;28;92550;-46
2022/11/20 10:04:04;;;;;;;83.85;53.03;;;15.40;72.50;;;;;;4975650;28;90742;-47
2022/11/20 10:06:37;;;;;;;84.88;53.70;;;15.50;72.30;;;;;;4973592;28;93706;-47
2022/11/20 10:09:11;;;;;;;83.07;54.17;;;15.50;72.80;;;;;;4975093;28;91978;-48
2022/11/20 10:12:08;;;;;;;80.97;53.78;;;15.60;72.80;;;;;;4984552;28;90308;-47
2022/11/20 10:15:06;;;;;;;85.80;54.13;;;15.70;72.70;;;;;;4988814;28;90358;-46
2022/11/20 10:18:10;;;;;;;82.13;54.10;;;15.60;72.70;;;;;;4988682;27;90235;-47
2022/11/20 10:21:00;;;;;;;81.65;53.38;;;15.70;72.80;;;;;;4975814;28;90686;-51
2022/11/20 10:23:45;;;;;;;79.70;53.53;;;15.70;73.10;;;;;;4979914;28;90306;-50
2022/11/20 10:26:42;;;;;;;82.88;53.95;;;15.70;73.70;;;;;;4986064;28;90432;-45
2022/11/20 10:29:15;;;;;;;77.93;53.92;;;15.70;74.40;;;;;;4977201;28;91169;-47
2022/11/20 10:31:45;;;;;;;83.63;53.45;;;15.70;75.60;;;;;;4985701;27;91257;-47
2022/11/20 10:34:28;;;;;;;79.10;53.58;;;15.80;74.30;;;;;;4974974;28;90227;-48
2022/11/20 10:37:03;;;;;;;78.22;53.60;;;15.70;74.70;;;;;;4985183;28;89427;-46
2022/11/20 10:39:50;;;;;;;78.97;53.85;;;15.70;74.10;;;;;;4982088;28;91834;-45
2022/11/20 10:42:43;;;;;;;81.38;54.70;;;15.70;73.60;;;;;;4981473;27;90257;-46
2022/11/20 10:45:24;;;;;;;89.78;56.08;;;15.70;74.10;;;;;;4978541;28;89775;-49
2022/11/20 10:47:54;;;;;;;85.32;55.95;;;15.60;73.00;;;;;;4985145;28;89865;-46
2022/11/20 10:50:21;;;;;;;86.70;55.30;;;15.60;72.80;;;;;;4974057;28;91179;-51
2022/11/20 10:53:16;;;;;;;83.85;55.17;;;15.60;72.70;;;;;;4993202;28;90487;-49
2022/11/20 10:55:58;;;;;;;82.10;54.65;;;15.60;72.50;;;;;;4988415;28;91284;-48
2022/11/20 10:58:52;;;;;;;83.60;54.22;;;15.60;72.40;;;;;;4979648;28;91470;-50
2022/11/20 11:01:23;;;;;;;81.50;54.15;;;15.60;72.50;;;;;;4977590;28;90421;-50
2022/11/20 11:03:51;;;;;;;79.55;54.17;;;15.70;72.40;;;;;;4984867;28;89789;-49
2022/11/20 11:06:36;;;;;;;81.38;54.63;;;15.70;72.10;;;;;;4983069;27;92505;-49
2022/11/20 11:09:08;;;;;;;83.70;54.50;;;15.80;72.20;;;;;;4999674;27;91793;-50
2022/11/20 11:11:34;;;;;;;84.75;54.67;;;15.80;72.50;;;;;;4988379;28;90006;-48
2022/11/20 11:14:11;;;;;;;83.18;55.17;;;15.80;72.50;;;;;;4982435;28;89189;-50
2022/11/20 11:16:56;;;;;;;83.30;55.03;;;15.80;72.50;;;;;;4991235;28;90069;-50
2022/11/20 11:19:22;;;;;;;83.45;54.20;;;15.70;72.60;;;;;;4983394;28;91709;-49
2022/11/20 11:21:56;;;;;;;86.63;54.47;;;15.80;72.60;;;;;;4978874;28;92416;-48
2022/11/20 11:24:29;;;;;;;83.65;55.55;;;15.70;73.50;;;;;;4985353;28;89779;-50
2022/11/20 11:27:04;;;;;;;83.90;56.00;;;15.80;72.90;;;;;;4983086;28;90390;-52
2022/11/20 11:29:30;;;;;;;83.13;55.63;;;15.80;72.70;;;;;;4984692;28;89858;-52
2022/11/20 11:32:13;;;;;;;90.95;56.88;;;15.80;72.70;;;;;;4979826;28;91975;-48
2022/11/20 11:34:39;;;;;;;79.47;53.88;;;15.90;72.90;;;;;;4977909;28;90113;-51
2022/11/20 11:37:12;;;;;;;86.75;55.30;;;15.90;72.60;;;;;;4983028;28;89891;-50
2022/11/20 11:39:41;;;;;;;81.93;54.50;;;15.80;72.60;;;;;;4977542;28;89876;-51
2022/11/20 11:42:14;;;;;;;80.90;53.60;;;15.90;72.80;;;;;;4983724;28;90371;-49
2022/11/20 11:47:41;;;;;;;84.13;54.38;;;15.90;72.80;;;;;;4981330;28;91751;-52
2022/11/20 11:50:09;;;;;;;82.07;53.97;;;15.90;72.80;;;;;;4983808;28;93351;-49
2022/11/20 11:52:54;;;;;;;89.53;53.60;;;15.90;72.50;;;;;;4985852;28;92210;-52
2022/11/20 11:55:56;;;;;;;82.32;54.22;;;15.90;72.50;;;;;;4988494;28;90018;-50
2022/11/20 11:58:48;;;;;;;79.30;53.20;;;15.90;72.60;;;;;;4977536;28;90087;-51
2022/11/20 12:01:34;;;;;;;80.90;53.65;;;15.90;72.60;;;;;;4986364;28;91577;-49
2022/11/20 12:04:18;;;;;;;84.80;54.15;;;15.90;72.50;;;;;;4981813;28;89942;-50
2022/11/20 12:06:48;;;;;;;78.28;53.10;;;15.90;72.60;;;;;;4981651;28;90368;-48
2022/11/20 12:09:13;;;;;;;79.25;52.75;;;15.90;72.50;;;;;;4988549;28;90176;-51
2022/11/20 12:12:11;;;;;;;83.50;53.85;;;15.90;72.60;;;;;;4984554;27;90024;-47
2022/11/20 12:14:39;;;;;;;74.78;52.47;;;15.90;72.50;;;;;;4976720;28;91526;-47
2022/11/20 12:17:05;;;;;;;75.90;52.17;;;15.90;72.50;;;;;;4989753;28;90163;-47
2022/11/20 12:19:33;;;;;;;76.45;52.85;;;15.90;72.70;;;;;;4976400;28;92101;-49
2022/11/20 12:22:23;;;;;;;79.25;52.20;;;15.90;72.70;;;;;;4973545;28;92173;-49
2022/11/20 12:25:04;;;;;;;79.82;52.67;;;15.90;72.60;;;;;;4975392;28;92052;-48
2022/11/20 12:27:43;;;;;;;77.72;52.55;;;15.90;72.70;;;;;;4982124;28;90935;-52
2022/11/20 12:30:16;;;;;;;75.13;52.17;;;16.00;72.90;;;;;;4984023;28;91626;-53
2022/11/20 12:32:50;;;;;;;74.45;52.00;;;16.00;72.70;;;;;;4986856;28;90226;-50
2022/11/20 12:35:37;;;;;;;74.25;52.47;;;16.00;72.60;;;;;;4988372;28;89880;-50
2022/11/20 12:38:35;;;;;;;74.95;51.88;;;16.00;72.50;;;;;;4977021;28;93956;-50
2022/11/20 12:41:06;;;;;;;77.03;51.80;;;16.00;72.50;;;;;;4981410;28;91619;-50
2022/11/20 12:46:49;;;;;;;74.50;52.17;;;16.00;72.50;;;;;;4987316;28;89920;-52
2022/11/20 12:49:24;;;;;;;75.18;51.38;;;16.00;72.20;;;;;;4977877;28;93161;-49
2022/11/20 12:52:08;;;;;;;73.75;51.45;;;16.00;72.30;;;;;;4984877;28;92159;-51
2022/11/20 12:54:52;;;;;;;78.45;52.03;;;16.00;72.60;;;;;;4980789;27;90883;-49
2022/11/20 12:57:37;;;;;;;72.68;51.85;;;15.90;72.70;;;;;;4982289;28;90689;-49